createdAt,value
2023-04-11T00:00:30.083Z,56.84
2023-04-11T00:03:01.731Z,56.57
2023-04-11T00:05:31.298Z,56.81
2023-04-11T00:07:57.884Z,56.63
2023-04-11T00:10:24.498Z,56.67
2023-04-11T00:12:56.329Z,56.76
2023-04-11T00:15:26.655Z,56.92
2023-04-11T00:17:54.803Z,57.01
2023-04-11T00:20:21.691Z,57.01
2023-04-11T00:22:48.206Z,56.93
2023-04-11T00:25:15.262Z,56.97
2023-04-11T00:27:41.702Z,56.97
2023-04-11T00:30:08.412Z,57.08
2023-04-11T00:32:34.872Z,57.04
2023-04-11T00:35:01.820Z,57.21
2023-04-11T00:37:28.386Z,57.37
2023-04-11T00:39:56.139Z,57.40
2023-04-11T00:42:22.991Z,57.51
2023-04-11T00:44:50.757Z,57.53
2023-04-11T00:47:18.532Z,57.51
2023-04-11T00:49:45.981Z,57.49
2023-04-11T00:52:13.631Z,57.56
2023-04-11T00:54:40.299Z,57.65
2023-04-11T00:57:08.176Z,57.69
2023-04-11T00:59:35.151Z,57.77
2023-04-11T01:02:01.997Z,57.67
2023-04-11T01:04:29.635Z,57.81
2023-04-11T01:07:05.765Z,58.06
2023-04-11T01:09:34.342Z,57.96
2023-04-11T01:12:02.963Z,57.98
2023-04-11T01:14:29.880Z,58.08
2023-04-11T01:16:57.238Z,58.18
2023-04-11T01:19:29.205Z,58.14
2023-04-11T01:21:57.775Z,58.37
2023-04-11T01:24:24.810Z,58.28
2023-04-11T01:26:52.065Z,58.36
2023-04-11T01:29:19.133Z,58.36
2023-04-11T01:31:46.341Z,58.29
2023-04-11T01:34:14.709Z,58.30
2023-04-11T01:36:42.400Z,58.33
2023-04-11T01:39:09.213Z,58.53
2023-04-11T01:41:36.369Z,58.75
2023-04-11T01:44:04.243Z,58.51
2023-04-11T01:46:31.117Z,58.64
2023-04-11T01:49:00.296Z,58.69
2023-04-11T01:51:27.172Z,58.70
2023-04-11T01:53:54.262Z,58.73
2023-04-11T01:56:20.826Z,58.85
2023-04-11T01:58:47.339Z,58.76
2023-04-11T02:01:17.636Z,58.86
2023-04-11T02:03:44.123Z,58.83
2023-04-11T02:06:10.645Z,58.90
2023-04-11T02:08:37.092Z,58.95
2023-04-11T02:11:03.635Z,58.94
2023-04-11T02:13:30.206Z,59.16
2023-04-11T02:15:56.708Z,59.22
2023-04-11T02:18:25.983Z,59.05
2023-04-11T02:20:52.676Z,59.23
2023-04-11T02:23:19.138Z,59.30
2023-04-11T02:25:46.466Z,59.30
2023-04-11T02:28:12.898Z,59.27
2023-04-11T02:30:39.397Z,59.46
2023-04-11T02:33:05.886Z,59.43
2023-04-11T02:35:32.887Z,59.51
2023-04-11T02:38:01.048Z,59.42
2023-04-11T02:40:29.865Z,59.48
2023-04-11T02:42:56.272Z,59.55
2023-04-11T02:45:22.811Z,59.61
2023-04-11T02:47:49.322Z,59.44
2023-04-11T02:50:16.528Z,59.52
2023-04-11T02:52:49.635Z,59.55
2023-04-11T02:55:19.921Z,59.44
2023-04-11T02:57:46.355Z,59.56
2023-04-11T03:00:16.611Z,59.34
2023-04-11T03:02:50.239Z,59.56
2023-04-11T03:05:20.962Z,59.47
2023-04-11T03:07:50.214Z,59.53
2023-04-11T03:10:16.799Z,59.47
2023-04-11T03:12:43.568Z,59.74
2023-04-11T03:15:11.343Z,59.74
2023-04-11T03:17:37.874Z,59.72
2023-04-11T03:20:07.181Z,59.74
2023-04-11T03:22:34.210Z,59.72
2023-04-11T03:25:00.849Z,59.88
2023-04-11T03:27:27.317Z,59.83
2023-04-11T03:29:58.425Z,59.73
2023-04-11T03:32:37.415Z,59.73
2023-04-11T03:35:04.184Z,59.55
2023-04-11T03:37:30.641Z,59.51
2023-04-11T03:39:57.058Z,59.65
2023-04-11T03:42:23.787Z,59.66
2023-04-11T03:44:55.265Z,59.55
2023-04-11T03:47:24.533Z,59.65
2023-04-11T03:49:51.269Z,59.37
2023-04-11T03:52:18.080Z,59.42
2023-04-11T03:54:47.895Z,59.24
2023-04-11T03:57:15.530Z,59.26
2023-04-11T03:59:42.072Z,59.35
2023-04-11T04:02:12.090Z,59.47
2023-04-11T04:04:47.132Z,59.52
2023-04-11T04:07:43.147Z,59.41
2023-04-11T04:10:21.453Z,59.62
2023-04-11T04:12:52.472Z,59.53
2023-04-11T04:15:32.891Z,59.32
2023-04-11T04:18:00.841Z,59.53
2023-04-11T04:20:41.568Z,59.61
2023-04-11T04:23:08.480Z,59.61
2023-04-11T04:25:52.676Z,59.91
2023-04-11T04:28:25.922Z,59.40
2023-04-11T04:30:54.555Z,59.76
2023-04-11T04:35:58.028Z,59.54
2023-04-11T04:38:28.888Z,59.67
2023-04-11T04:40:58.939Z,59.92
2023-04-11T04:43:27.230Z,59.78
2023-04-11T04:46:01.889Z,59.82
2023-04-11T04:48:39.397Z,59.95
2023-04-11T04:51:06.921Z,59.81
2023-04-11T04:53:38.500Z,59.58
2023-04-11T04:56:06.338Z,59.78
2023-04-11T04:58:37.294Z,59.76
2023-04-11T05:01:09.112Z,59.59
2023-04-11T05:03:38.585Z,59.75
2023-04-11T05:06:09.673Z,59.87
2023-04-11T05:08:37.296Z,59.84
2023-04-11T05:11:06.273Z,59.87
2023-04-11T05:13:34.314Z,59.77
2023-04-11T05:16:02.332Z,59.97
2023-04-11T05:18:30.528Z,59.91
2023-04-11T05:20:57.511Z,60.00
2023-04-11T05:23:29.133Z,60.09
2023-04-11T05:25:59.323Z,59.97
2023-04-11T05:28:26.172Z,60.06
2023-04-11T05:30:53.382Z,60.07
2023-04-11T05:33:19.930Z,60.07
2023-04-11T05:35:46.420Z,60.13
2023-04-11T05:38:12.909Z,60.28
2023-04-11T05:40:39.803Z,60.07
2023-04-11T05:43:06.417Z,60.21
2023-04-11T05:45:32.931Z,60.16
2023-04-11T05:47:59.461Z,60.27
2023-04-11T05:50:26.110Z,60.05
2023-04-11T05:52:52.547Z,60.40
2023-04-11T05:55:19.077Z,60.48
2023-04-11T05:57:45.505Z,60.43
2023-04-11T06:00:13.117Z,60.40
2023-04-11T06:02:41.969Z,60.53
2023-04-11T06:05:11.942Z,60.39
2023-04-11T06:07:39.384Z,60.45
2023-04-11T06:10:07.497Z,60.44
2023-04-11T06:12:33.948Z,60.55
2023-04-11T06:15:00.641Z,60.62
2023-04-11T06:17:27.109Z,60.68
2023-04-11T06:19:53.741Z,60.47
2023-04-11T06:22:20.212Z,60.68
2023-04-11T06:24:47.616Z,60.61
2023-04-11T06:27:14.329Z,60.72
2023-04-11T06:29:43.489Z,60.73
2023-04-11T06:32:11.945Z,60.68
2023-04-11T06:34:39.407Z,60.70
2023-04-11T06:37:07.235Z,60.81
2023-04-11T06:39:34.521Z,60.89
2023-04-11T06:42:02.073Z,60.92
2023-04-11T06:44:31.685Z,60.81
2023-04-11T06:46:59.120Z,60.90
2023-04-11T06:49:26.883Z,60.80
2023-04-11T06:51:54.597Z,60.79
2023-04-11T06:54:21.963Z,60.90
2023-04-11T06:56:50.652Z,60.78
2023-04-11T06:59:19.659Z,60.87
2023-04-11T07:01:46.512Z,60.93
2023-04-11T07:04:13.007Z,61.03
2023-04-11T07:06:39.556Z,61.13
2023-04-11T07:09:06.346Z,61.04
2023-04-11T07:11:33.502Z,61.13
2023-04-11T07:14:00.557Z,61.15
2023-04-11T07:16:27.304Z,61.15
2023-04-11T07:18:54.845Z,61.15
2023-04-11T07:21:21.614Z,61.26
2023-04-11T07:23:48.266Z,61.18
2023-04-11T07:26:16.806Z,61.29
2023-04-11T07:28:44.945Z,61.25
2023-04-11T07:31:12.566Z,61.22
2023-04-11T07:33:39.575Z,61.26
2023-04-11T07:36:07.100Z,61.04
2023-04-11T07:38:34.064Z,61.30
2023-04-11T07:41:02.969Z,61.21
2023-04-11T07:43:29.704Z,61.32
2023-04-11T07:45:57.462Z,61.22
2023-04-11T07:48:25.240Z,61.17
2023-04-11T07:50:52.979Z,61.10
2023-04-11T07:53:19.854Z,61.01
2023-04-11T07:55:46.300Z,61.12
2023-04-11T07:58:12.869Z,61.03
2023-04-11T08:00:39.451Z,61.13
2023-04-11T08:03:07.639Z,61.19
2023-04-11T08:05:35.706Z,61.11
2023-04-11T08:08:03.550Z,61.13
2023-04-11T08:10:30.227Z,61.27
2023-04-11T08:12:58.450Z,61.34
2023-04-11T08:15:25.991Z,61.35
2023-04-11T08:17:56.059Z,61.32
2023-04-11T08:20:24.216Z,61.35
2023-04-11T08:22:50.838Z,61.33
2023-04-11T08:25:22.748Z,61.37
2023-04-11T08:27:50.011Z,61.56
2023-04-11T08:30:17.282Z,61.44
2023-04-11T08:32:44.056Z,61.39
2023-04-11T08:35:10.720Z,61.38
2023-04-11T08:37:37.142Z,61.49
2023-04-11T08:40:06.801Z,61.38
2023-04-11T08:42:34.204Z,61.54
2023-04-11T08:45:08.165Z,61.35
2023-04-11T08:47:35.989Z,61.56
2023-04-11T08:50:03.657Z,61.49
2023-04-11T08:52:31.457Z,61.68
2023-04-11T08:54:57.917Z,61.64
2023-04-11T08:57:31.284Z,61.55
2023-04-11T09:00:02.151Z,61.56
2023-04-11T09:02:28.708Z,61.92
2023-04-11T09:04:57.628Z,61.91
2023-04-11T09:07:24.289Z,61.94
2023-04-11T09:09:51.041Z,61.92
2023-04-11T09:12:21.439Z,61.93
2023-04-11T09:14:47.845Z,62.24
2023-04-11T09:17:14.559Z,62.29
2023-04-11T09:19:46.835Z,62.09
2023-04-11T09:22:15.637Z,62.10
2023-04-11T09:24:42.843Z,62.24
2023-04-11T09:27:10.836Z,62.20
2023-04-11T09:29:39.713Z,62.24
2023-04-11T09:32:06.692Z,62.16
2023-04-11T09:34:34.746Z,61.91
2023-04-11T09:37:02.064Z,62.18
2023-04-11T09:39:30.127Z,62.10
2023-04-11T09:41:57.525Z,62.04
2023-04-11T09:44:38.457Z,61.83
2023-04-11T09:47:05.140Z,62.16
2023-04-11T09:49:34.157Z,61.74
2023-04-11T09:52:01.943Z,61.79
2023-04-11T09:54:29.184Z,61.85
2023-04-11T09:56:57.068Z,61.70
2023-04-11T09:59:26.683Z,61.80
2023-04-11T10:01:53.342Z,61.80
2023-04-11T10:04:20.418Z,61.63
2023-04-11T10:07:02.069Z,61.71
2023-04-11T10:09:31.207Z,61.79
2023-04-11T10:11:57.705Z,61.72
2023-04-11T10:14:39.721Z,61.75
2023-04-11T10:17:21.186Z,61.69
2023-04-11T10:19:50.541Z,61.80
2023-04-11T10:22:49.578Z,61.64
2023-04-11T10:25:24.500Z,61.71
2023-04-11T10:27:53.555Z,61.66
2023-04-11T10:30:40.743Z,61.67
2023-04-11T10:33:14.943Z,61.60
2023-04-11T10:36:02.882Z,61.63
2023-04-11T10:38:49.957Z,61.63
2023-04-11T10:41:22.562Z,61.57
2023-04-11T10:43:49.708Z,61.61
2023-04-11T10:46:20.822Z,61.42
2023-04-11T10:49:07.542Z,61.34
2023-04-11T10:51:34.348Z,61.49
2023-04-11T10:54:01.979Z,61.53
2023-04-11T10:56:54.180Z,61.63
2023-04-11T10:59:34.170Z,61.64
2023-04-11T11:02:02.330Z,61.62
2023-04-11T11:04:39.395Z,61.57
2023-04-11T11:07:07.841Z,61.62
2023-04-11T11:09:34.987Z,61.67
2023-04-11T11:12:12.684Z,61.68
2023-04-11T11:14:41.106Z,61.74
2023-04-11T11:17:08.835Z,61.76
2023-04-11T11:19:35.993Z,61.67
2023-04-11T11:22:06.698Z,61.83
2023-04-11T11:24:33.214Z,61.67
2023-04-11T11:26:59.603Z,62.03
2023-04-11T11:29:40.137Z,61.77
2023-04-11T11:32:07.113Z,61.99
2023-04-11T11:34:34.849Z,62.26
2023-04-11T11:37:07.054Z,62.44
2023-04-11T11:39:34.688Z,62.52
2023-04-11T11:42:01.621Z,62.46
2023-04-11T11:44:30.002Z,62.63
2023-04-11T11:47:12.267Z,62.71
2023-04-11T11:49:54.675Z,62.77
2023-04-11T11:52:34.780Z,63.07
2023-04-11T11:55:03.191Z,62.90
2023-04-11T11:57:29.759Z,63.01
2023-04-11T11:59:57.802Z,62.96
2023-04-11T12:02:26.099Z,62.85
2023-04-11T12:04:57.931Z,62.88
2023-04-11T12:07:24.603Z,62.62
2023-04-11T12:10:01.102Z,62.64
2023-04-11T12:12:38.379Z,62.64
2023-04-11T12:15:22.078Z,62.45
2023-04-11T12:17:52.804Z,62.38
2023-04-11T12:20:23.942Z,62.09
2023-04-11T12:22:52.150Z,62.28
2023-04-11T12:25:20.682Z,62.09
2023-04-11T12:27:48.512Z,62.00
2023-04-11T12:30:15.322Z,61.97
2023-04-11T12:32:42.893Z,61.93
2023-04-11T12:35:10.560Z,62.04
2023-04-11T12:37:37.115Z,61.88
2023-04-11T12:40:10.995Z,61.89
2023-04-11T12:42:49.534Z,61.97
2023-04-11T12:45:22.175Z,62.03
2023-04-11T12:47:48.961Z,61.93
2023-04-11T12:50:15.411Z,62.21
2023-04-11T12:52:41.936Z,62.19
2023-04-11T12:55:09.369Z,62.38
2023-04-11T12:57:36.536Z,62.27
2023-04-11T13:00:11.486Z,62.51
2023-04-11T13:02:43.200Z,62.60
2023-04-11T13:05:11.954Z,62.71
2023-04-11T13:07:39.026Z,62.73
2023-04-11T13:10:07.724Z,62.77
2023-04-11T13:12:39.589Z,63.08
2023-04-11T13:15:07.918Z,62.91
2023-04-11T13:17:34.619Z,62.86
2023-04-11T13:20:01.298Z,62.96
2023-04-11T13:22:27.753Z,62.93
2023-04-11T13:24:54.196Z,62.78
2023-04-11T13:27:22.014Z,62.64
2023-04-11T13:29:48.543Z,62.89
2023-04-11T13:32:14.972Z,62.90
2023-04-11T13:34:41.449Z,62.83
2023-04-11T13:37:07.935Z,62.86
2023-04-11T13:39:34.471Z,62.76
2023-04-11T13:42:00.881Z,62.67
2023-04-11T13:44:27.316Z,62.62
2023-04-11T13:46:53.737Z,62.41
2023-04-11T13:49:20.261Z,62.47
2023-04-11T13:51:47.133Z,62.41
2023-04-11T13:54:13.993Z,62.36
2023-04-11T13:56:41.113Z,62.50
2023-04-11T13:59:07.684Z,62.31
2023-04-11T14:01:34.601Z,62.51
2023-04-11T14:04:01.574Z,62.37
2023-04-11T14:06:28.377Z,62.44
2023-04-11T14:08:55.005Z,62.39
2023-04-11T14:11:21.575Z,62.43
2023-04-11T14:13:48.809Z,62.48
2023-04-11T14:16:15.700Z,62.48
2023-04-11T14:18:42.244Z,62.31
2023-04-11T14:21:08.783Z,62.32
2023-04-11T14:23:35.718Z,62.29
2023-04-11T14:26:02.148Z,62.22
2023-04-11T14:28:28.616Z,62.52
2023-04-11T14:30:56.091Z,62.36
2023-04-11T14:33:23.104Z,62.42
2023-04-11T14:35:50.970Z,62.14
2023-04-11T14:38:17.485Z,62.54
2023-04-11T14:40:44.350Z,62.48
2023-04-11T14:43:11.262Z,62.51
2023-04-11T14:45:37.813Z,62.44
2023-04-11T14:48:04.794Z,62.41
2023-04-11T14:50:31.340Z,62.42
2023-04-11T14:52:57.921Z,62.45
2023-04-11T14:55:24.515Z,62.53
2023-04-11T14:57:55.699Z,61.90
2023-04-11T15:00:22.792Z,61.68
2023-04-11T15:02:56.094Z,61.71
2023-04-11T15:05:23.444Z,61.65
2023-04-11T15:07:52.152Z,61.71
2023-04-11T15:10:21.315Z,61.74
2023-04-11T15:12:48.107Z,61.76
2023-04-11T15:15:15.751Z,61.70
2023-04-11T15:17:47.253Z,61.79
2023-04-11T15:20:14.693Z,61.80
2023-04-11T15:22:42.872Z,61.84
2023-04-11T15:25:12.136Z,61.82
2023-04-11T15:27:39.103Z,61.92
2023-04-11T15:30:06.490Z,62.16
2023-04-11T15:32:33.655Z,62.23
2023-04-11T15:35:00.299Z,62.45
2023-04-11T15:37:27.096Z,62.69
2023-04-11T15:39:53.941Z,62.71
2023-04-11T15:42:20.380Z,62.84
2023-04-11T15:44:46.842Z,62.85
2023-04-11T15:47:13.511Z,62.84
2023-04-11T15:49:40.023Z,62.70
2023-04-11T15:52:07.107Z,62.89
2023-04-11T15:54:33.797Z,63.04
2023-04-11T15:57:00.369Z,63.19
2023-04-11T15:59:26.877Z,63.11
2023-04-11T16:01:53.460Z,63.11
2023-04-11T16:04:20.789Z,63.45
2023-04-11T16:06:47.410Z,63.38
2023-04-11T16:09:13.858Z,63.22
2023-04-11T16:11:40.807Z,63.45
2023-04-11T16:14:07.349Z,63.53
2023-04-11T16:16:34.026Z,63.63
2023-04-11T16:19:00.648Z,63.57
2023-04-11T16:21:27.453Z,63.52
2023-04-11T16:23:54.859Z,63.66
2023-04-11T16:26:21.630Z,63.71
2023-04-11T16:28:48.839Z,63.49
2023-04-11T16:31:21.807Z,63.52
2023-04-11T16:33:48.388Z,63.70
2023-04-11T16:36:17.022Z,64.14
2023-04-11T16:38:43.878Z,64.39
2023-04-11T16:41:10.337Z,64.40
2023-04-11T16:43:37.062Z,64.85
2023-04-11T16:46:04.036Z,65.10
2023-04-11T16:48:31.514Z,64.87
2023-04-11T16:50:58.005Z,64.88
2023-04-11T16:53:24.565Z,64.62
2023-04-11T16:55:52.561Z,64.89
2023-04-11T16:58:19.288Z,64.62
2023-04-11T17:00:46.819Z,64.62
2023-04-11T17:03:13.452Z,64.36
2023-04-11T17:05:40.768Z,64.29
2023-04-11T17:08:07.353Z,64.08
2023-04-11T17:10:33.948Z,63.89
2023-04-11T17:13:00.794Z,63.50
2023-04-11T17:15:27.429Z,63.25
2023-04-11T17:17:53.923Z,63.36
2023-04-11T17:20:22.866Z,63.21
2023-04-11T17:22:49.653Z,63.18
2023-04-11T17:25:16.804Z,63.06
2023-04-11T17:27:43.418Z,63.15
2023-04-11T17:30:10.196Z,63.11
2023-04-11T17:32:38.036Z,62.97
2023-04-11T17:35:06.672Z,63.09
2023-04-11T17:37:33.967Z,62.93
2023-04-11T17:40:00.767Z,62.84
2023-04-11T17:42:27.271Z,62.85
2023-04-11T17:44:55.756Z,62.81
2023-04-11T17:47:23.757Z,62.93
2023-04-11T17:49:50.509Z,62.93
2023-04-11T17:52:17.129Z,62.78
2023-04-11T17:54:43.670Z,62.75
2023-04-11T17:57:10.119Z,62.75
2023-04-11T17:59:36.685Z,63.04
2023-04-11T18:02:03.282Z,62.81
2023-04-11T18:04:30.054Z,62.58
2023-04-11T18:06:58.175Z,62.86
2023-04-11T18:09:27.427Z,62.81
2023-04-11T18:11:54.039Z,62.75
2023-04-11T18:14:20.614Z,62.90
2023-04-11T18:16:47.422Z,62.57
2023-04-11T18:19:13.930Z,62.66
2023-04-11T18:21:40.998Z,62.71
2023-04-11T18:24:07.637Z,62.79
2023-04-11T18:26:35.413Z,62.86
2023-04-11T18:29:01.855Z,62.89
2023-04-11T18:31:28.454Z,62.91
2023-04-11T18:33:55.445Z,62.72
2023-04-11T18:36:22.586Z,62.82
2023-04-11T18:38:49.530Z,62.62
2023-04-11T18:41:17.612Z,62.74
2023-04-11T18:43:44.933Z,62.57
2023-04-11T18:46:11.533Z,62.62
2023-04-11T18:48:38.192Z,62.53
2023-04-11T18:51:05.079Z,62.70
2023-04-11T18:53:31.820Z,62.57
2023-04-11T18:56:02.828Z,62.63
2023-04-11T18:58:31.828Z,62.66
2023-04-11T19:01:03.617Z,62.69
2023-04-11T19:03:36.702Z,62.78
2023-04-11T19:06:03.767Z,62.64
2023-04-11T19:08:30.345Z,62.83
2023-04-11T19:10:56.822Z,62.63
2023-04-11T19:13:23.320Z,62.92
2023-04-11T19:15:49.867Z,62.80
2023-04-11T19:18:16.661Z,62.96
2023-04-11T19:20:43.632Z,63.05
2023-04-11T19:23:10.151Z,62.93
2023-04-11T19:25:36.937Z,62.99
2023-04-11T19:28:03.467Z,62.91
2023-04-11T19:30:30.006Z,63.00
2023-04-11T19:32:57.532Z,62.78
2023-04-11T19:35:25.217Z,63.00
2023-04-11T19:37:52.008Z,63.02
2023-04-11T19:40:18.786Z,63.08
2023-04-11T19:42:45.467Z,63.08
2023-04-11T19:45:12.269Z,62.76
2023-04-11T19:47:40.627Z,63.05
2023-04-11T19:50:12.028Z,63.19
2023-04-11T19:52:39.359Z,63.23
2023-04-11T19:55:06.513Z,63.26
2023-04-11T19:57:33.848Z,62.97
2023-04-11T20:00:00.515Z,62.68
2023-04-11T20:02:27.246Z,63.16
2023-04-11T20:04:56.114Z,63.10
2023-04-11T20:07:23.020Z,63.22
2023-04-11T20:09:49.680Z,63.11
2023-04-11T20:12:16.129Z,63.42
2023-04-11T20:14:43.841Z,63.28
2023-04-11T20:17:10.410Z,63.09
2023-04-11T20:19:39.524Z,63.40
2023-04-11T20:22:10.748Z,63.39
2023-04-11T20:24:37.211Z,63.44
2023-04-11T20:27:03.800Z,63.31
2023-04-11T20:29:32.935Z,63.48
2023-04-11T20:31:59.640Z,63.51
2023-04-11T20:34:26.141Z,63.29
2023-04-11T20:36:52.689Z,63.51
2023-04-11T20:39:19.288Z,63.53
2023-04-11T20:41:45.872Z,63.67
2023-04-11T20:44:12.316Z,63.42
2023-04-11T20:46:39.911Z,63.49
2023-04-11T20:49:06.905Z,63.52
2023-04-11T20:51:34.060Z,63.63
2023-04-11T20:54:00.714Z,63.51
2023-04-11T20:56:27.209Z,63.58
2023-04-11T20:58:53.785Z,63.67
2023-04-11T21:01:20.285Z,63.55
2023-04-11T21:03:48.195Z,63.75
2023-04-11T21:06:14.863Z,63.67
2023-04-11T21:08:41.328Z,63.67
2023-04-11T21:11:08.222Z,63.68
2023-04-11T21:13:34.836Z,63.50
2023-04-11T21:16:01.425Z,63.35
2023-04-11T21:18:28.960Z,63.68
2023-04-11T21:20:55.528Z,63.68
2023-04-11T21:23:22.174Z,63.67
2023-04-11T21:25:48.672Z,63.72
2023-04-11T21:28:15.287Z,63.77
2023-04-11T21:30:42.390Z,63.56
2023-04-11T21:33:10.334Z,63.77
2023-04-11T21:35:36.891Z,63.74
2023-04-11T21:38:03.406Z,63.79
2023-04-11T21:40:30.563Z,63.63
2023-04-11T21:42:57.098Z,63.71
2023-04-11T21:45:23.715Z,63.69
2023-04-11T21:47:53.244Z,63.86
2023-04-11T21:50:19.812Z,63.80
2023-04-11T21:52:46.796Z,63.83
2023-04-11T21:55:14.600Z,63.72
2023-04-11T21:57:41.584Z,63.74
2023-04-11T22:00:10.979Z,63.78
2023-04-11T22:02:41.329Z,63.72
2023-04-11T22:05:12.547Z,63.77
2023-04-11T22:07:48.329Z,63.88
2023-04-11T22:10:22.140Z,63.83
2023-04-11T22:12:48.957Z,63.58
2023-04-11T22:15:18.121Z,63.54
2023-04-11T22:17:50.434Z,64.01
2023-04-11T22:20:18.485Z,63.94
2023-04-11T22:22:45.170Z,63.87
2023-04-11T22:25:12.302Z,63.72
2023-04-11T22:27:39.066Z,64.08
2023-04-11T22:30:07.097Z,63.83
2023-04-11T22:32:34.191Z,63.80
2023-04-11T22:35:01.208Z,63.78
2023-04-11T22:37:27.830Z,63.73
2023-04-11T22:39:54.341Z,63.59
2023-04-11T22:42:20.923Z,63.84
2023-04-11T22:44:47.514Z,63.85
2023-04-11T22:47:16.252Z,63.78
2023-04-11T22:49:44.788Z,63.73
2023-04-11T22:52:15.183Z,63.92
2023-04-11T22:54:42.777Z,63.67
2023-04-11T22:57:09.649Z,64.02
2023-04-11T22:59:36.766Z,63.81
2023-04-11T23:02:03.402Z,63.86
2023-04-11T23:04:31.562Z,63.89
2023-04-11T23:06:58.310Z,64.31
2023-04-11T23:09:25.056Z,64.05
2023-04-11T23:11:52.167Z,63.85
2023-04-11T23:14:20.889Z,63.99
2023-04-11T23:16:47.494Z,63.88
2023-04-11T23:19:14.097Z,63.89
2023-04-11T23:21:41.050Z,63.80
2023-04-11T23:24:07.636Z,63.92
2023-04-11T23:26:34.194Z,63.97
2023-04-11T23:29:02.556Z,64.00
2023-04-11T23:31:30.979Z,63.96
2023-04-11T23:33:57.671Z,64.16
2023-04-11T23:36:24.263Z,64.20
2023-04-11T23:38:50.769Z,64.24
2023-04-11T23:41:17.331Z,64.41
2023-04-11T23:43:43.835Z,64.07
2023-04-11T23:46:10.969Z,64.25
2023-04-11T23:48:37.582Z,64.17
2023-04-11T23:51:04.318Z,63.97
2023-04-11T23:53:31.766Z,64.15
2023-04-11T23:55:58.369Z,64.38
2023-04-11T23:58:24.885Z,64.22
